sensor_id;sensor_type;location;lat;lon;timestamp;P1;durP1;ratioP1;P2;durP2;ratioP2
49572;SDS011;35476;52.466;13.364;2023-02-01T00:02:15;29.92;;;6.82;;
49572;SDS011;35476;52.466;13.364;2023-02-01T00:04:40;33.80;;;7.87;;
49572;SDS011;35476;52.466;13.364;2023-02-01T00:07:05;31.25;;;5.55;;
49572;SDS011;35476;52.466;13.364;2023-02-01T00:09:31;28.15;;;5.93;;
49572;SDS011;35476;52.466;13.364;2023-02-01T00:11:56;35.70;;;5.13;;
49572;SDS011;35476;52.466;13.364;2023-02-01T00:14:24;27.25;;;5.25;;
49572;SDS011;35476;52.466;13.364;2023-02-01T00:16:49;29.88;;;6.63;;
49572;SDS011;35476;52.466;13.364;2023-02-01T00:19:14;29.73;;;5.30;;
49572;SDS011;35476;52.466;13.364;2023-02-01T00:21:40;21.00;;;4.10;;
49572;SDS011;35476;52.466;13.364;2023-02-01T00:24:05;22.42;;;5.70;;
49572;SDS011;35476;52.466;13.364;2023-02-01T00:26:32;24.55;;;6.88;;
49572;SDS011;35476;52.466;13.364;2023-02-01T00:28:57;40.13;;;7.22;;
49572;SDS011;35476;52.466;13.364;2023-02-01T00:31:23;22.08;;;5.85;;
49572;SDS011;35476;52.466;13.364;2023-02-01T00:33:48;25.37;;;4.80;;
49572;SDS011;35476;52.466;13.364;2023-02-01T00:36:13;16.52;;;4.05;;
49572;SDS011;35476;52.466;13.364;2023-02-01T00:38:38;23.25;;;5.20;;
49572;SDS011;35476;52.466;13.364;2023-02-01T00:41:05;34.75;;;5.63;;
49572;SDS011;35476;52.466;13.364;2023-02-01T00:43:31;29.60;;;4.68;;
49572;SDS011;35476;52.466;13.364;2023-02-01T00:45:56;25.90;;;5.03;;
49572;SDS011;35476;52.466;13.364;2023-02-01T00:48:22;14.95;;;4.72;;
49572;SDS011;35476;52.466;13.364;2023-02-01T00:50:47;36.00;;;6.60;;
49572;SDS011;35476;52.466;13.364;2023-02-01T00:53:12;22.50;;;5.30;;
49572;SDS011;35476;52.466;13.364;2023-02-01T00:55:37;19.23;;;4.55;;
49572;SDS011;35476;52.466;13.364;2023-02-01T00:58:03;17.77;;;4.30;;
49572;SDS011;35476;52.466;13.364;2023-02-01T01:00:30;19.35;;;4.50;;
49572;SDS011;35476;52.466;13.364;2023-02-01T01:02:55;29.97;;;6.97;;
49572;SDS011;35476;52.466;13.364;2023-02-01T01:05:21;25.95;;;4.63;;
49572;SDS011;35476;52.466;13.364;2023-02-01T01:07:46;27.40;;;4.55;;
49572;SDS011;35476;52.466;13.364;2023-02-01T01:10:11;26.43;;;6.00;;
49572;SDS011;35476;52.466;13.364;2023-02-01T01:12:36;18.88;;;4.18;;
49572;SDS011;35476;52.466;13.364;2023-02-01T01:15:02;16.63;;;3.37;;
49572;SDS011;35476;52.466;13.364;2023-02-01T01:17:27;23.90;;;5.60;;
49572;SDS011;35476;52.466;13.364;2023-02-01T01:19:52;26.83;;;6.53;;
49572;SDS011;35476;52.466;13.364;2023-02-01T01:22:18;20.35;;;4.57;;
49572;SDS011;35476;52.466;13.364;2023-02-01T01:24:43;23.00;;;5.87;;
49572;SDS011;35476;52.466;13.364;2023-02-01T01:27:08;24.48;;;7.07;;
49572;SDS011;35476;52.466;13.364;2023-02-01T01:29:33;27.95;;;4.80;;
49572;SDS011;35476;52.466;13.364;2023-02-01T01:31:59;26.45;;;5.68;;
49572;SDS011;35476;52.466;13.364;2023-02-01T01:34:24;10.80;;;3.17;;
49572;SDS011;35476;52.466;13.364;2023-02-01T01:36:49;16.55;;;4.30;;
49572;SDS011;35476;52.466;13.364;2023-02-01T01:39:14;24.30;;;4.87;;
49572;SDS011;35476;52.466;13.364;2023-02-01T01:41:39;21.23;;;5.03;;
49572;SDS011;35476;52.466;13.364;2023-02-01T01:44:06;20.37;;;3.83;;
49572;SDS011;35476;52.466;13.364;2023-02-01T01:46:32;23.67;;;7.53;;
49572;SDS011;35476;52.466;13.364;2023-02-01T01:49:05;27.58;;;5.18;;
49572;SDS011;35476;52.466;13.364;2023-02-01T01:51:32;18.95;;;3.78;;
49572;SDS011;35476;52.466;13.364;2023-02-01T01:54:08;26.05;;;5.00;;
49572;SDS011;35476;52.466;13.364;2023-02-01T01:56:34;24.45;;;4.28;;
49572;SDS011;35476;52.466;13.364;2023-02-01T01:59:00;27.90;;;5.78;;
49572;SDS011;35476;52.466;13.364;2023-02-01T02:01:25;23.15;;;6.43;;
49572;SDS011;35476;52.466;13.364;2023-02-01T02:03:51;25.77;;;4.60;;
49572;SDS011;35476;52.466;13.364;2023-02-01T02:08:47;24.23;;;5.00;;
49572;SDS011;35476;52.466;13.364;2023-02-01T02:11:14;18.30;;;4.57;;
49572;SDS011;35476;52.466;13.364;2023-02-01T02:13:41;20.83;;;3.83;;
49572;SDS011;35476;52.466;13.364;2023-02-01T02:21:37;21.33;;;4.68;;
49572;SDS011;35476;52.466;13.364;2023-02-01T02:26:45;26.77;;;4.80;;
49572;SDS011;35476;52.466;13.364;2023-02-01T02:34:28;17.93;;;4.17;;
49572;SDS011;35476;52.466;13.364;2023-02-01T02:48:30;23.02;;;4.72;;
49572;SDS011;35476;52.466;13.364;2023-02-01T02:50:53;22.90;;;5.88;;
49572;SDS011;35476;52.466;13.364;2023-02-01T02:56:25;24.42;;;5.00;;
49572;SDS011;35476;52.466;13.364;2023-02-01T02:59:11;23.00;;;5.35;;
49572;SDS011;35476;52.466;13.364;2023-02-01T03:01:56;24.38;;;4.10;;
49572;SDS011;35476;52.466;13.364;2023-02-01T03:04:40;22.83;;;4.68;;
49572;SDS011;35476;52.466;13.364;2023-02-01T03:07:14;28.13;;;5.03;;
49572;SDS011;35476;52.466;13.364;2023-02-01T03:09:40;22.83;;;5.43;;
49572;SDS011;35476;52.466;13.364;2023-02-01T03:12:09;22.25;;;4.35;;
49572;SDS011;35476;52.466;13.364;2023-02-01T03:14:55;19.13;;;3.67;;
49572;SDS011;35476;52.466;13.364;2023-02-01T03:17:22;27.77;;;4.90;;
49572;SDS011;35476;52.466;13.364;2023-02-01T03:19:51;25.00;;;4.68;;
49572;SDS011;35476;52.466;13.364;2023-02-01T03:22:17;19.00;;;5.03;;
49572;SDS011;35476;52.466;13.364;2023-02-01T03:29:40;27.33;;;5.72;;
49572;SDS011;35476;52.466;13.364;2023-02-01T03:32:08;23.00;;;4.45;;
49572;SDS011;35476;52.466;13.364;2023-02-01T03:34:34;22.63;;;4.32;;
49572;SDS011;35476;52.466;13.364;2023-02-01T03:37:01;31.15;;;4.38;;
49572;SDS011;35476;52.466;13.364;2023-02-01T03:39:35;22.35;;;5.03;;
49572;SDS011;35476;52.466;13.364;2023-02-01T03:42:03;19.67;;;4.57;;
49572;SDS011;35476;52.466;13.364;2023-02-01T03:44:31;21.15;;;3.88;;
49572;SDS011;35476;52.466;13.364;2023-02-01T03:47:05;26.65;;;8.15;;
49572;SDS011;35476;52.466;13.364;2023-02-01T03:49:36;24.50;;;6.28;;
49572;SDS011;35476;52.466;13.364;2023-02-01T03:52:02;19.50;;;5.47;;
49572;SDS011;35476;52.466;13.364;2023-02-01T03:54:30;24.25;;;5.55;;
49572;SDS011;35476;52.466;13.364;2023-02-01T03:56:57;22.10;;;6.15;;
49572;SDS011;35476;52.466;13.364;2023-02-01T03:59:24;22.02;;;4.57;;
49572;SDS011;35476;52.466;13.364;2023-02-01T04:01:49;17.03;;;4.13;;
49572;SDS011;35476;52.466;13.364;2023-02-01T04:04:15;21.70;;;5.18;;
49572;SDS011;35476;52.466;13.364;2023-02-01T04:06:45;30.85;;;5.63;;
49572;SDS011;35476;52.466;13.364;2023-02-01T04:09:10;20.27;;;4.43;;
49572;SDS011;35476;52.466;13.364;2023-02-01T04:11:35;26.37;;;5.47;;
49572;SDS011;35476;52.466;13.364;2023-02-01T04:14:01;21.23;;;5.37;;
49572;SDS011;35476;52.466;13.364;2023-02-01T04:16:29;22.50;;;5.22;;
49572;SDS011;35476;52.466;13.364;2023-02-01T04:18:54;15.13;;;4.75;;
49572;SDS011;35476;52.466;13.364;2023-02-01T04:21:19;35.30;;;7.17;;
49572;SDS011;35476;52.466;13.364;2023-02-01T04:23:44;20.20;;;3.77;;
49572;SDS011;35476;52.466;13.364;2023-02-01T04:26:10;21.73;;;4.53;;
49572;SDS011;35476;52.466;13.364;2023-02-01T04:28:35;26.88;;;4.10;;
49572;SDS011;35476;52.466;13.364;2023-02-01T04:31:00;17.57;;;4.63;;
49572;SDS011;35476;52.466;13.364;2023-02-01T04:33:25;37.15;;;9.02;;
49572;SDS011;35476;52.466;13.364;2023-02-01T04:35:51;14.63;;;4.57;;
49572;SDS011;35476;52.466;13.364;2023-02-01T04:38:16;27.05;;;5.78;;
49572;SDS011;35476;52.466;13.364;2023-02-01T04:40:41;26.58;;;4.47;;
49572;SDS011;35476;52.466;13.364;2023-02-01T04:43:07;22.10;;;4.53;;
49572;SDS011;35476;52.466;13.364;2023-02-01T04:45:33;19.55;;;4.90;;
49572;SDS011;35476;52.466;13.364;2023-02-01T04:47:58;22.33;;;6.80;;
49572;SDS011;35476;52.466;13.364;2023-02-01T04:50:23;20.33;;;4.47;;
49572;SDS011;35476;52.466;13.364;2023-02-01T04:52:48;33.10;;;7.00;;
49572;SDS011;35476;52.466;13.364;2023-02-01T04:55:14;19.17;;;4.35;;
49572;SDS011;35476;52.466;13.364;2023-02-01T04:57:39;21.20;;;5.03;;
49572;SDS011;35476;52.466;13.364;2023-02-01T05:00:06;27.08;;;4.75;;
49572;SDS011;35476;52.466;13.364;2023-02-01T05:02:31;27.38;;;4.78;;
49572;SDS011;35476;52.466;13.364;2023-02-01T05:04:57;15.85;;;4.10;;
49572;SDS011;35476;52.466;13.364;2023-02-01T05:07:22;33.88;;;7.32;;
49572;SDS011;35476;52.466;13.364;2023-02-01T05:09:47;17.33;;;4.15;;
49572;SDS011;35476;52.466;13.364;2023-02-01T05:12:12;20.40;;;4.30;;
49572;SDS011;35476;52.466;13.364;2023-02-01T05:14:56;24.52;;;4.85;;
49572;SDS011;35476;52.466;13.364;2023-02-01T05:17:21;19.43;;;4.03;;
49572;SDS011;35476;52.466;13.364;2023-02-01T05:19:46;14.57;;;3.90;;
49572;SDS011;35476;52.466;13.364;2023-02-01T05:22:12;19.93;;;4.97;;
49572;SDS011;35476;52.466;13.364;2023-02-01T05:24:37;23.63;;;4.18;;
49572;SDS011;35476;52.466;13.364;2023-02-01T05:27:02;26.10;;;6.57;;
49572;SDS011;35476;52.466;13.364;2023-02-01T05:29:27;20.13;;;5.63;;
49572;SDS011;35476;52.466;13.364;2023-02-01T05:31:52;23.73;;;4.40;;
49572;SDS011;35476;52.466;13.364;2023-02-01T05:34:18;20.47;;;5.30;;
49572;SDS011;35476;52.466;13.364;2023-02-01T05:36:43;18.33;;;4.18;;
49572;SDS011;35476;52.466;13.364;2023-02-01T05:39:08;20.98;;;5.25;;
49572;SDS011;35476;52.466;13.364;2023-02-01T05:41:35;23.58;;;4.43;;
49572;SDS011;35476;52.466;13.364;2023-02-01T05:44:00;31.40;;;7.25;;
49572;SDS011;35476;52.466;13.364;2023-02-01T05:46:25;26.08;;;5.88;;
49572;SDS011;35476;52.466;13.364;2023-02-01T05:48:50;36.25;;;8.50;;
49572;SDS011;35476;52.466;13.364;2023-02-01T05:51:16;19.70;;;5.27;;
49572;SDS011;35476;52.466;13.364;2023-02-01T05:53:41;19.60;;;5.15;;
49572;SDS011;35476;52.466;13.364;2023-02-01T05:56:06;17.27;;;5.28;;
49572;SDS011;35476;52.466;13.364;2023-02-01T05:58:32;20.23;;;4.82;;
49572;SDS011;35476;52.466;13.364;2023-02-01T06:01:00;27.70;;;4.95;;
49572;SDS011;35476;52.466;13.364;2023-02-01T06:03:26;20.25;;;4.57;;
49572;SDS011;35476;52.466;13.364;2023-02-01T06:05:51;21.27;;;5.82;;
49572;SDS011;35476;52.466;13.364;2023-02-01T06:08:16;19.23;;;4.93;;
49572;SDS011;35476;52.466;13.364;2023-02-01T06:10:42;18.25;;;4.45;;
49572;SDS011;35476;52.466;13.364;2023-02-01T06:13:07;29.88;;;6.72;;
49572;SDS011;35476;52.466;13.364;2023-02-01T06:15:33;30.13;;;5.32;;
49572;SDS011;35476;52.466;13.364;2023-02-01T06:17:58;26.23;;;4.75;;
49572;SDS011;35476;52.466;13.364;2023-02-01T06:20:23;30.47;;;7.87;;
49572;SDS011;35476;52.466;13.364;2023-02-01T06:22:50;24.60;;;6.03;;
49572;SDS011;35476;52.466;13.364;2023-02-01T06:25:17;17.75;;;4.57;;
49572;SDS011;35476;52.466;13.364;2023-02-01T06:27:43;23.15;;;6.05;;
49572;SDS011;35476;52.466;13.364;2023-02-01T06:30:10;22.08;;;5.90;;
49572;SDS011;35476;52.466;13.364;2023-02-01T06:32:35;25.10;;;5.85;;
49572;SDS011;35476;52.466;13.364;2023-02-01T06:35:01;16.05;;;4.38;;
49572;SDS011;35476;52.466;13.364;2023-02-01T06:37:26;17.80;;;5.33;;
49572;SDS011;35476;52.466;13.364;2023-02-01T06:39:54;18.73;;;4.60;;
49572;SDS011;35476;52.466;13.364;2023-02-01T06:42:19;18.90;;;4.70;;
49572;SDS011;35476;52.466;13.364;2023-02-01T06:44:44;27.30;;;5.03;;
49572;SDS011;35476;52.466;13.364;2023-02-01T06:47:09;23.50;;;4.90;;
49572;SDS011;35476;52.466;13.364;2023-02-01T06:49:35;15.65;;;4.00;;
49572;SDS011;35476;52.466;13.364;2023-02-01T06:52:00;35.03;;;6.07;;
49572;SDS011;35476;52.466;13.364;2023-02-01T06:54:26;19.10;;;5.15;;
49572;SDS011;35476;52.466;13.364;2023-02-01T06:56:51;20.95;;;5.95;;
49572;SDS011;35476;52.466;13.364;2023-02-01T06:59:16;32.50;;;4.90;;
49572;SDS011;35476;52.466;13.364;2023-02-01T07:01:41;23.15;;;4.22;;
49572;SDS011;35476;52.466;13.364;2023-02-01T07:04:08;16.80;;;4.27;;
49572;SDS011;35476;52.466;13.364;2023-02-01T07:06:34;15.02;;;4.43;;
49572;SDS011;35476;52.466;13.364;2023-02-01T07:08:59;24.70;;;4.50;;
49572;SDS011;35476;52.466;13.364;2023-02-01T07:11:25;22.02;;;4.72;;
49572;SDS011;35476;52.466;13.364;2023-02-01T07:13:52;25.95;;;6.18;;
49572;SDS011;35476;52.466;13.364;2023-02-01T07:16:18;21.57;;;4.93;;
49572;SDS011;35476;52.466;13.364;2023-02-01T07:18:43;25.67;;;4.97;;
49572;SDS011;35476;52.466;13.364;2023-02-01T07:21:09;20.77;;;8.38;;
49572;SDS011;35476;52.466;13.364;2023-02-01T07:23:34;15.80;;;5.00;;
49572;SDS011;35476;52.466;13.364;2023-02-01T07:26:00;16.35;;;4.45;;
49572;SDS011;35476;52.466;13.364;2023-02-01T07:28:27;32.47;;;6.15;;
49572;SDS011;35476;52.466;13.364;2023-02-01T07:30:52;25.13;;;5.55;;
49572;SDS011;35476;52.466;13.364;2023-02-01T07:33:18;20.00;;;4.70;;
49572;SDS011;35476;52.466;13.364;2023-02-01T07:35:44;19.17;;;4.15;;
49572;SDS011;35476;52.466;13.364;2023-02-01T07:38:09;20.17;;;4.75;;
49572;SDS011;35476;52.466;13.364;2023-02-01T07:40:34;18.67;;;5.53;;
49572;SDS011;35476;52.466;13.364;2023-02-01T07:43:00;28.23;;;5.07;;
49572;SDS011;35476;52.466;13.364;2023-02-01T07:45:25;24.80;;;6.30;;
49572;SDS011;35476;52.466;13.364;2023-02-01T07:47:51;18.55;;;4.32;;
49572;SDS011;35476;52.466;13.364;2023-02-01T07:50:16;18.40;;;6.22;;
49572;SDS011;35476;52.466;13.364;2023-02-01T07:52:41;25.50;;;5.78;;
49572;SDS011;35476;52.466;13.364;2023-02-01T07:55:07;19.30;;;4.50;;
49572;SDS011;35476;52.466;13.364;2023-02-01T07:57:32;15.15;;;4.90;;
49572;SDS011;35476;52.466;13.364;2023-02-01T07:59:57;24.25;;;7.25;;
49572;SDS011;35476;52.466;13.364;2023-02-01T08:02:41;26.80;;;5.97;;
49572;SDS011;35476;52.466;13.364;2023-02-01T08:05:07;24.63;;;6.50;;
49572;SDS011;35476;52.466;13.364;2023-02-01T08:07:32;21.83;;;5.47;;
49572;SDS011;35476;52.466;13.364;2023-02-01T08:09:57;20.23;;;5.25;;
49572;SDS011;35476;52.466;13.364;2023-02-01T08:12:23;11.07;;;4.90;;
49572;SDS011;35476;52.466;13.364;2023-02-01T08:14:48;30.87;;;5.60;;
49572;SDS011;35476;52.466;13.364;2023-02-01T08:17:13;22.47;;;6.03;;
49572;SDS011;35476;52.466;13.364;2023-02-01T08:19:39;18.90;;;5.45;;
49572;SDS011;35476;52.466;13.364;2023-02-01T08:22:04;27.42;;;8.55;;
49572;SDS011;35476;52.466;13.364;2023-02-01T08:24:32;21.77;;;5.53;;
49572;SDS011;35476;52.466;13.364;2023-02-01T08:26:57;15.70;;;5.43;;
49572;SDS011;35476;52.466;13.364;2023-02-01T08:29:22;19.58;;;6.10;;
49572;SDS011;35476;52.466;13.364;2023-02-01T08:31:47;16.02;;;5.18;;
49572;SDS011;35476;52.466;13.364;2023-02-01T08:34:12;19.65;;;6.03;;
49572;SDS011;35476;52.466;13.364;2023-02-01T08:36:38;18.63;;;7.40;;
49572;SDS011;35476;52.466;13.364;2023-02-01T08:39:03;17.60;;;6.93;;
49572;SDS011;35476;52.466;13.364;2023-02-01T08:41:30;21.75;;;7.00;;
49572;SDS011;35476;52.466;13.364;2023-02-01T08:43:56;25.65;;;6.75;;
49572;SDS011;35476;52.466;13.364;2023-02-01T08:46:22;21.17;;;6.35;;
49572;SDS011;35476;52.466;13.364;2023-02-01T08:48:47;17.15;;;6.45;;
49572;SDS011;35476;52.466;13.364;2023-02-01T08:51:13;22.08;;;7.45;;
49572;SDS011;35476;52.466;13.364;2023-02-01T08:53:39;16.30;;;5.25;;
49572;SDS011;35476;52.466;13.364;2023-02-01T08:56:11;10.20;;;4.22;;
49572;SDS011;35476;52.466;13.364;2023-02-01T08:58:36;8.88;;;4.40;;
49572;SDS011;35476;52.466;13.364;2023-02-01T09:01:05;11.80;;;4.43;;
49572;SDS011;35476;52.466;13.364;2023-02-01T09:03:31;9.65;;;3.55;;
49572;SDS011;35476;52.466;13.364;2023-02-01T09:06:03;14.02;;;4.43;;
49572;SDS011;35476;52.466;13.364;2023-02-01T09:08:28;7.78;;;3.58;;
49572;SDS011;35476;52.466;13.364;2023-02-01T09:10:57;11.77;;;3.90;;
49572;SDS011;35476;52.466;13.364;2023-02-01T09:13:22;13.70;;;3.75;;
49572;SDS011;35476;52.466;13.364;2023-02-01T09:15:50;10.55;;;4.20;;
49572;SDS011;35476;52.466;13.364;2023-02-01T09:18:15;18.40;;;4.57;;
49572;SDS011;35476;52.466;13.364;2023-02-01T09:20:40;8.52;;;3.00;;
49572;SDS011;35476;52.466;13.364;2023-02-01T09:23:05;13.47;;;3.37;;
49572;SDS011;35476;52.466;13.364;2023-02-01T09:25:32;9.52;;;3.03;;
49572;SDS011;35476;52.466;13.364;2023-02-01T09:27:57;9.70;;;2.97;;
49572;SDS011;35476;52.466;13.364;2023-02-01T09:30:22;9.47;;;2.97;;
49572;SDS011;35476;52.466;13.364;2023-02-01T09:32:48;10.50;;;3.17;;
49572;SDS011;35476;52.466;13.364;2023-02-01T09:35:13;8.07;;;2.47;;
49572;SDS011;35476;52.466;13.364;2023-02-01T09:37:38;7.70;;;2.60;;
49572;SDS011;35476;52.466;13.364;2023-02-01T09:40:03;4.77;;;1.70;;
49572;SDS011;35476;52.466;13.364;2023-02-01T09:42:47;6.00;;;2.72;;
49572;SDS011;35476;52.466;13.364;2023-02-01T09:45:17;13.38;;;5.63;;
49572;SDS011;35476;52.466;13.364;2023-02-01T09:47:54;5.20;;;2.20;;
49572;SDS011;35476;52.466;13.364;2023-02-01T09:50:21;6.13;;;1.80;;
49572;SDS011;35476;52.466;13.364;2023-02-01T09:52:55;6.68;;;2.05;;
49572;SDS011;35476;52.466;13.364;2023-02-01T09:55:41;9.15;;;3.33;;
49572;SDS011;35476;52.466;13.364;2023-02-01T09:58:09;3.60;;;1.58;;
49572;SDS011;35476;52.466;13.364;2023-02-01T10:00:37;5.15;;;1.92;;
49572;SDS011;35476;52.466;13.364;2023-02-01T10:03:03;5.75;;;2.13;;
49572;SDS011;35476;52.466;13.364;2023-02-01T10:10:46;14.93;;;3.47;;
49572;SDS011;35476;52.466;13.364;2023-02-01T10:23:36;7.82;;;4.53;;
49572;SDS011;35476;52.466;13.364;2023-02-01T10:26:06;7.72;;;2.53;;
49572;SDS011;35476;52.466;13.364;2023-02-01T10:28:33;6.07;;;1.90;;
49572;SDS011;35476;52.466;13.364;2023-02-01T10:30:59;8.57;;;3.25;;
49572;SDS011;35476;52.466;13.364;2023-02-01T10:35:54;8.97;;;3.00;;
49572;SDS011;35476;52.466;13.364;2023-02-01T10:38:29;13.23;;;2.42;;
49572;SDS011;35476;52.466;13.364;2023-02-01T10:40:55;6.18;;;2.30;;
49572;SDS011;35476;52.466;13.364;2023-02-01T10:43:22;7.82;;;2.85;;
49572;SDS011;35476;52.466;13.364;2023-02-01T10:45:47;10.45;;;2.42;;
49572;SDS011;35476;52.466;13.364;2023-02-01T10:48:12;14.83;;;2.77;;
49572;SDS011;35476;52.466;13.364;2023-02-01T10:53:11;6.38;;;2.33;;
49572;SDS011;35476;52.466;13.364;2023-02-01T10:55:40;7.85;;;2.40;;
49572;SDS011;35476;52.466;13.364;2023-02-01T10:58:14;17.25;;;2.90;;
49572;SDS011;35476;52.466;13.364;2023-02-01T11:00:45;7.78;;;2.60;;
49572;SDS011;35476;52.466;13.364;2023-02-01T11:08:20;8.63;;;2.65;;
49572;SDS011;35476;52.466;13.364;2023-02-01T11:10:45;14.40;;;3.03;;
49572;SDS011;35476;52.466;13.364;2023-02-01T11:13:15;6.70;;;2.88;;
49572;SDS011;35476;52.466;13.364;2023-02-01T11:15:46;8.77;;;2.47;;
49572;SDS011;35476;52.466;13.364;2023-02-01T11:18:19;9.57;;;2.72;;
49572;SDS011;35476;52.466;13.364;2023-02-01T11:20:45;7.20;;;3.08;;
49572;SDS011;35476;52.466;13.364;2023-02-01T11:23:24;8.57;;;2.53;;
49572;SDS011;35476;52.466;13.364;2023-02-01T11:25:54;19.02;;;7.25;;
49572;SDS011;35476;52.466;13.364;2023-02-01T11:28:20;16.70;;;5.97;;
49572;SDS011;35476;52.466;13.364;2023-02-01T11:30:47;13.35;;;3.13;;
49572;SDS011;35476;52.466;13.364;2023-02-01T11:33:17;7.88;;;2.80;;
49572;SDS011;35476;52.466;13.364;2023-02-01T11:35:43;11.82;;;2.72;;
49572;SDS011;35476;52.466;13.364;2023-02-01T11:40:43;11.32;;;2.55;;
49572;SDS011;35476;52.466;13.364;2023-02-01T11:43:22;8.95;;;3.20;;
49572;SDS011;35476;52.466;13.364;2023-02-01T11:45:58;14.75;;;2.70;;
49572;SDS011;35476;52.466;13.364;2023-02-01T11:48:25;14.27;;;3.08;;
49572;SDS011;35476;52.466;13.364;2023-02-01T11:53:28;12.30;;;3.08;;
49572;SDS011;35476;52.466;13.364;2023-02-01T11:56:05;11.90;;;2.88;;
49572;SDS011;35476;52.466;13.364;2023-02-01T12:08:39;10.13;;;2.72;;
49572;SDS011;35476;52.466;13.364;2023-02-01T12:26:47;8.10;;;2.38;;
49572;SDS011;35476;52.466;13.364;2023-02-01T12:44:24;9.23;;;2.45;;
49572;SDS011;35476;52.466;13.364;2023-02-01T12:47:03;14.27;;;5.22;;
49572;SDS011;35476;52.466;13.364;2023-02-01T12:52:26;17.52;;;3.40;;
49572;SDS011;35476;52.466;13.364;2023-02-01T12:54:55;13.77;;;3.42;;
49572;SDS011;35476;52.466;13.364;2023-02-01T12:57:26;14.50;;;2.65;;
49572;SDS011;35476;52.466;13.364;2023-02-01T13:00:07;15.63;;;3.28;;
49572;SDS011;35476;52.466;13.364;2023-02-01T13:05:19;6.60;;;3.33;;
49572;SDS011;35476;52.466;13.364;2023-02-01T13:07:59;15.05;;;3.20;;
49572;SDS011;35476;52.466;13.364;2023-02-01T13:12:52;10.50;;;2.33;;
49572;SDS011;35476;52.466;13.364;2023-02-01T13:15:24;9.50;;;2.50;;
49572;SDS011;35476;52.466;13.364;2023-02-01T13:17:50;9.10;;;3.00;;
49572;SDS011;35476;52.466;13.364;2023-02-01T13:20:28;7.93;;;2.47;;
49572;SDS011;35476;52.466;13.364;2023-02-01T13:22:57;9.10;;;2.45;;
49572;SDS011;35476;52.466;13.364;2023-02-01T13:25:28;11.43;;;2.78;;
49572;SDS011;35476;52.466;13.364;2023-02-01T13:27:55;10.88;;;3.03;;
49572;SDS011;35476;52.466;13.364;2023-02-01T13:30:22;12.45;;;3.05;;
49572;SDS011;35476;52.466;13.364;2023-02-01T13:35:28;6.05;;;2.67;;
49572;SDS011;35476;52.466;13.364;2023-02-01T13:38:08;9.77;;;3.03;;
49572;SDS011;35476;52.466;13.364;2023-02-01T13:40:53;14.20;;;2.78;;
49572;SDS011;35476;52.466;13.364;2023-02-01T13:43:28;7.45;;;2.28;;
49572;SDS011;35476;52.466;13.364;2023-02-01T13:45:56;9.25;;;2.67;;
49572;SDS011;35476;52.466;13.364;2023-02-01T13:48:23;10.57;;;2.88;;
49572;SDS011;35476;52.466;13.364;2023-02-01T13:50:53;6.70;;;2.55;;
49572;SDS011;35476;52.466;13.364;2023-02-01T13:53:22;6.63;;;2.65;;
49572;SDS011;35476;52.466;13.364;2023-02-01T13:55:55;8.18;;;2.20;;
49572;SDS011;35476;52.466;13.364;2023-02-01T13:58:22;8.68;;;2.60;;
49572;SDS011;35476;52.466;13.364;2023-02-01T14:00:53;8.57;;;2.30;;
49572;SDS011;35476;52.466;13.364;2023-02-01T14:03:45;9.00;;;3.45;;
49572;SDS011;35476;52.466;13.364;2023-02-01T14:06:16;10.07;;;2.90;;
49572;SDS011;35476;52.466;13.364;2023-02-01T14:08:42;13.48;;;3.10;;
49572;SDS011;35476;52.466;13.364;2023-02-01T14:11:13;17.27;;;3.25;;
49572;SDS011;35476;52.466;13.364;2023-02-01T14:13:52;16.98;;;3.38;;
49572;SDS011;35476;52.466;13.364;2023-02-01T14:16:17;15.53;;;3.53;;
49572;SDS011;35476;52.466;13.364;2023-02-01T14:21:32;13.05;;;4.18;;
49572;SDS011;35476;52.466;13.364;2023-02-01T14:26:24;12.60;;;3.07;;
49572;SDS011;35476;52.466;13.364;2023-02-01T14:31:16;17.65;;;5.35;;
49572;SDS011;35476;52.466;13.364;2023-02-01T14:33:42;11.75;;;2.92;;
49572;SDS011;35476;52.466;13.364;2023-02-01T14:36:10;11.43;;;3.45;;
49572;SDS011;35476;52.466;13.364;2023-02-01T14:38:37;29.45;;;6.32;;
49572;SDS011;35476;52.466;13.364;2023-02-01T14:41:14;20.30;;;5.43;;
49572;SDS011;35476;52.466;13.364;2023-02-01T14:43:49;10.32;;;3.38;;
49572;SDS011;35476;52.466;13.364;2023-02-01T14:46:15;12.93;;;3.75;;
49572;SDS011;35476;52.466;13.364;2023-02-01T14:48:42;15.00;;;5.70;;
49572;SDS011;35476;52.466;13.364;2023-02-01T14:51:08;12.38;;;4.72;;
49572;SDS011;35476;52.466;13.364;2023-02-01T14:53:36;18.10;;;3.45;;
49572;SDS011;35476;52.466;13.364;2023-02-01T14:56:06;10.85;;;3.00;;
49572;SDS011;35476;52.466;13.364;2023-02-01T15:01:00;6.90;;;2.50;;
49572;SDS011;35476;52.466;13.364;2023-02-01T15:05:57;4.07;;;1.85;;
49572;SDS011;35476;52.466;13.364;2023-02-01T15:08:25;4.93;;;1.63;;
49572;SDS011;35476;52.466;13.364;2023-02-01T15:10:51;7.65;;;2.20;;
49572;SDS011;35476;52.466;13.364;2023-02-01T15:13:27;6.85;;;2.50;;
49572;SDS011;35476;52.466;13.364;2023-02-01T15:16:08;2.45;;;1.40;;
49572;SDS011;35476;52.466;13.364;2023-02-01T15:18:34;5.78;;;1.95;;
49572;SDS011;35476;52.466;13.364;2023-02-01T15:21:00;6.75;;;2.70;;
49572;SDS011;35476;52.466;13.364;2023-02-01T15:23:25;9.50;;;2.58;;
49572;SDS011;35476;52.466;13.364;2023-02-01T15:25:51;7.20;;;2.53;;
49572;SDS011;35476;52.466;13.364;2023-02-01T15:28:16;8.48;;;3.45;;
49572;SDS011;35476;52.466;13.364;2023-02-01T15:30:55;9.25;;;2.63;;
49572;SDS011;35476;52.466;13.364;2023-02-01T15:33:21;5.15;;;2.45;;
49572;SDS011;35476;52.466;13.364;2023-02-01T15:35:47;15.98;;;4.05;;
49572;SDS011;35476;52.466;13.364;2023-02-01T15:41:01;12.77;;;3.08;;
49572;SDS011;35476;52.466;13.364;2023-02-01T15:43:28;8.05;;;2.75;;
49572;SDS011;35476;52.466;13.364;2023-02-01T15:46:01;7.25;;;2.22;;
49572;SDS011;35476;52.466;13.364;2023-02-01T15:48:28;7.32;;;2.35;;
49572;SDS011;35476;52.466;13.364;2023-02-01T15:50:55;4.78;;;2.30;;
49572;SDS011;35476;52.466;13.364;2023-02-01T15:53:21;5.10;;;3.15;;
49572;SDS011;35476;52.466;13.364;2023-02-01T15:55:51;11.07;;;3.53;;
49572;SDS011;35476;52.466;13.364;2023-02-01T15:58:20;10.77;;;3.35;;
49572;SDS011;35476;52.466;13.364;2023-02-01T16:00:47;7.18;;;4.25;;
49572;SDS011;35476;52.466;13.364;2023-02-01T16:06:00;10.10;;;4.25;;
49572;SDS011;35476;52.466;13.364;2023-02-01T16:08:26;8.48;;;3.78;;
49572;SDS011;35476;52.466;13.364;2023-02-01T16:10:53;17.83;;;3.50;;
49572;SDS011;35476;52.466;13.364;2023-02-01T16:13:19;10.88;;;4.00;;
49572;SDS011;35476;52.466;13.364;2023-02-01T16:15:45;8.02;;;2.97;;
49572;SDS011;35476;52.466;13.364;2023-02-01T16:18:11;3.97;;;2.28;;
49572;SDS011;35476;52.466;13.364;2023-02-01T16:20:38;4.70;;;2.08;;
49572;SDS011;35476;52.466;13.364;2023-02-01T16:23:04;6.20;;;2.00;;
49572;SDS011;35476;52.466;13.364;2023-02-01T16:25:30;3.15;;;1.80;;
49572;SDS011;35476;52.466;13.364;2023-02-01T16:27:55;2.95;;;1.60;;
49572;SDS011;35476;52.466;13.364;2023-02-01T16:30:20;3.95;;;1.45;;
49572;SDS011;35476;52.466;13.364;2023-02-01T16:32:58;5.25;;;1.80;;
49572;SDS011;35476;52.466;13.364;2023-02-01T16:35:31;2.58;;;1.55;;
49572;SDS011;35476;52.466;13.364;2023-02-01T16:38:00;3.50;;;1.70;;
49572;SDS011;35476;52.466;13.364;2023-02-01T16:40:26;4.95;;;1.38;;
49572;SDS011;35476;52.466;13.364;2023-02-01T16:42:51;3.53;;;1.75;;